Time;durP1;ratioP1;P1;durP2;ratioP2;P2;SDS_P1;SDS_P2;PMS_P1;PMS_P2;Temp;Humidity;BMP_temperature;BMP_pressure;BME280_temperature;BME280_humidity;BME280_pressure;Samples;Min_cycle;Max_cycle;Signal;HPM_P1;HPM_P2
2023/09/16 00:02:16;;;;;;;3.28;3.00;;;;;;;;;;5054294;28;20219;-79
2023/09/16 00:04:42;;;;;;;3.78;2.78;;;;;;;;;;5088415;28;20219;-79
2023/09/16 00:07:07;;;;;;;2.92;2.72;;;;;;;;;;5068712;28;20219;-77
2023/09/16 00:09:33;;;;;;;2.88;2.60;;;;;;;;;;5069692;28;20218;-78
2023/09/16 00:12:00;;;;;;;3.08;2.80;;;;;;;;;;5068566;28;20245;-78
2023/09/16 00:14:25;;;;;;;3.47;3.15;;;;;;;;;;5057189;28;20223;-77
2023/09/16 00:16:52;;;;;;;3.33;2.80;;;;;;;;;;5066730;28;20227;-77
2023/09/16 00:19:18;;;;;;;3.00;2.80;;;;;;;;;;5050287;28;20220;-76
2023/09/16 00:21:45;;;;;;;2.45;2.33;;;;;;;;;;5068216;28;20668;-76
2023/09/16 00:24:11;;;;;;;3.10;2.90;;;;;;;;;;5077741;28;20207;-79
2023/09/16 00:26:39;;;;;;;3.50;2.95;;;;;;;;;;5084992;28;20717;-78
2023/09/16 00:29:06;;;;;;;3.15;2.83;;;;;;;;;;5069068;28;20212;-79
2023/09/16 00:31:36;;;;;;;3.30;3.00;;;;;;;;;;5068877;28;20227;-79
2023/09/16 00:34:05;;;;;;;3.38;3.08;;;;;;;;;;5072913;28;20222;-77
2023/09/16 00:36:30;;;;;;;3.28;2.97;;;;;;;;;;5069042;28;20223;-78
2023/09/16 00:38:58;;;;;;;3.00;2.80;;;;;;;;;;5063848;28;20271;-78
2023/09/16 00:41:23;;;;;;;3.05;2.75;;;;;;;;;;5053028;28;20241;-78
2023/09/16 00:43:49;;;;;;;7.22;3.00;;;;;;;;;;5062045;28;20218;-77
2023/09/16 00:46:18;;;;;;;3.15;2.80;;;;;;;;;;5064255;28;20234;-79
2023/09/16 00:48:45;;;;;;;3.88;2.92;;;;;;;;;;5048327;28;20228;-78
2023/09/16 00:51:10;;;;;;;2.83;2.63;;;;;;;;;;5068887;28;20216;-78
2023/09/16 00:53:38;;;;;;;3.03;2.83;;;;;;;;;;5065197;28;20227;-77
2023/09/16 00:56:04;;;;;;;3.63;3.22;;;;;;;;;;5047401;28;20286;-77
2023/09/16 00:58:33;;;;;;;3.10;2.90;;;;;;;;;;5072636;28;20233;-78
2023/09/16 01:00:58;;;;;;;3.30;2.95;;;;;;;;;;5068974;28;20211;-78
2023/09/16 01:03:24;;;;;;;3.42;3.13;;;;;;;;;;5053184;28;20223;-79
2023/09/16 01:05:51;;;;;;;6.00;3.05;;;;;;;;;;5046401;28;20271;-78
2023/09/16 01:08:19;;;;;;;5.93;3.20;;;;;;;;;;5051705;28;20258;-77
2023/09/16 01:10:44;;;;;;;9.17;3.03;;;;;;;;;;5064651;28;20945;-79
2023/09/16 01:13:15;;;;;;;5.40;2.90;;;;;;;;;;5030731;28;20245;-77
2023/09/16 01:15:51;;;;;;;2.95;2.75;;;;;;;;;;5053110;28;20228;-78
2023/09/16 01:18:27;;;;;;;3.47;3.17;;;;;;;;;;5052711;28;20268;-76
2023/09/16 01:20:56;;;;;;;3.92;3.10;;;;;;;;;;5052261;28;20254;-79
2023/09/16 01:23:22;;;;;;;3.53;3.22;;;;;;;;;;5045076;28;20227;-78
2023/09/16 01:25:47;;;;;;;3.87;3.10;;;;;;;;;;5078164;28;20309;-77
2023/09/16 01:28:13;;;;;;;3.33;2.53;;;;;;;;;;5062127;28;20571;-79
2023/09/16 01:30:47;;;;;;;3.40;3.10;;;;;;;;;;5058628;28;20245;-79
2023/09/16 01:33:32;;;;;;;4.25;3.20;;;;;;;;;;5032922;28;20218;-78
2023/09/16 01:36:07;;;;;;;3.35;3.13;;;;;;;;;;5035203;28;20298;-78
2023/09/16 01:38:33;;;;;;;5.05;3.00;;;;;;;;;;5049726;28;20223;-76
2023/09/16 01:40:59;;;;;;;3.38;3.08;;;;;;;;;;5066835;28;20215;-79
2023/09/16 01:43:25;;;;;;;6.43;3.20;;;;;;;;;;5036686;28;20275;-77
2023/09/16 01:45:50;;;;;;;3.47;3.17;;;;;;;;;;5049428;28;20279;-79
2023/09/16 01:48:16;;;;;;;3.08;2.88;;;;;;;;;;5028455;28;20269;-77
2023/09/16 01:50:43;;;;;;;3.88;3.53;;;;;;;;;;5018973;28;20230;-78
2023/09/16 01:53:09;;;;;;;3.72;3.10;;;;;;;;;;5031591;28;20279;-77
2023/09/16 01:55:37;;;;;;;3.53;3.20;;;;;;;;;;5076748;28;20310;-79
2023/09/16 01:58:03;;;;;;;3.78;3.40;;;;;;;;;;5052576;28;20643;-77
2023/09/16 02:00:30;;;;;;;3.60;3.30;;;;;;;;;;5027486;28;20364;-77
2023/09/16 02:02:57;;;;;;;3.43;3.23;;;;;;;;;;5035371;28;20268;-77
2023/09/16 02:05:24;;;;;;;3.78;3.47;;;;;;;;;;5059200;28;20219;-78
2023/09/16 02:07:52;;;;;;;5.63;3.57;;;;;;;;;;5027883;28;20262;-78
2023/09/16 02:10:32;;;;;;;3.70;3.37;;;;;;;;;;5083553;28;20230;-77
2023/09/16 02:13:00;;;;;;;3.63;3.33;;;;;;;;;;5065259;28;20217;-78
2023/09/16 02:15:27;;;;;;;3.73;3.20;;;;;;;;;;5039936;28;20222;-78
2023/09/16 02:17:54;;;;;;;3.80;3.45;;;;;;;;;;5064125;28;20231;-77
2023/09/16 02:20:19;;;;;;;3.92;3.58;;;;;;;;;;5062712;28;20628;-78
2023/09/16 02:22:45;;;;;;;3.90;3.58;;;;;;;;;;5077818;28;20267;-77
2023/09/16 02:25:15;;;;;;;3.80;3.47;;;;;;;;;;5059579;28;20215;-78
2023/09/16 02:27:43;;;;;;;4.33;3.93;;;;;;;;;;5048478;28;20272;-78
2023/09/16 02:30:09;;;;;;;3.80;3.50;;;;;;;;;;5059868;28;20219;-78
2023/09/16 02:32:35;;;;;;;3.90;3.60;;;;;;;;;;5060964;28;20686;-77
2023/09/16 02:35:03;;;;;;;4.87;4.40;;;;;;;;;;5051378;28;20207;-78
2023/09/16 02:37:31;;;;;;;4.07;3.67;;;;;;;;;;5051994;28;20284;-77
2023/09/16 02:40:07;;;;;;;4.13;3.70;;;;;;;;;;5068184;28;20695;-79
2023/09/16 02:42:39;;;;;;;3.87;3.53;;;;;;;;;;5061307;28;20699;-76
2023/09/16 02:45:05;;;;;;;6.30;4.10;;;;;;;;;;5044242;28;20207;-77
2023/09/16 02:47:33;;;;;;;4.57;4.17;;;;;;;;;;5062513;28;20689;-77
2023/09/16 02:50:02;;;;;;;5.80;4.13;;;;;;;;;;5067579;28;20238;-78
2023/09/16 02:52:33;;;;;;;3.97;3.57;;;;;;;;;;5065899;28;20224;-78
2023/09/16 02:54:58;;;;;;;4.47;4.07;;;;;;;;;;5058543;28;20230;-78
2023/09/16 02:57:24;;;;;;;4.50;4.10;;;;;;;;;;5067267;28;20231;-78
2023/09/16 02:59:49;;;;;;;4.33;4.03;;;;;;;;;;5030963;28;20219;-76
2023/09/16 03:02:17;;;;;;;4.87;4.47;;;;;;;;;;5059928;28;20250;-78
2023/09/16 03:04:43;;;;;;;5.17;4.60;;;;;;;;;;5026243;28;20219;-77
2023/09/16 03:07:11;;;;;;;4.97;4.57;;;;;;;;;;5050448;28;20221;-78
2023/09/16 03:09:40;;;;;;;4.63;4.30;;;;;;;;;;5058561;28;20562;-78
2023/09/16 03:12:14;;;;;;;4.63;4.22;;;;;;;;;;5033879;28;20214;-78
2023/09/16 03:14:40;;;;;;;4.77;4.37;;;;;;;;;;5059936;28;20218;-77
2023/09/16 03:17:07;;;;;;;4.37;4.07;;;;;;;;;;5077222;28;20371;-78
2023/09/16 03:19:34;;;;;;;5.27;4.77;;;;;;;;;;5050874;28;20299;-78
2023/09/16 03:22:02;;;;;;;4.73;4.43;;;;;;;;;;5076010;28;20218;-78
2023/09/16 03:24:31;;;;;;;5.67;4.57;;;;;;;;;;5059074;28;20743;-78
2023/09/16 03:26:59;;;;;;;7.60;5.20;;;;;;;;;;5043059;28;20233;-79
2023/09/16 03:29:24;;;;;;;5.22;4.72;;;;;;;;;;5061173;28;20253;-78
2023/09/16 03:31:50;;;;;;;4.83;4.43;;;;;;;;;;5077761;28;20219;-77
2023/09/16 03:34:19;;;;;;;5.20;4.80;;;;;;;;;;5074118;28;20296;-78
2023/09/16 03:36:49;;;;;;;5.20;4.70;;;;;;;;;;5043298;28;20227;-79
2023/09/16 03:39:15;;;;;;;5.20;4.80;;;;;;;;;;5058177;28;20302;-79
2023/09/16 03:41:45;;;;;;;5.18;4.78;;;;;;;;;;5063252;28;20644;-79
2023/09/16 03:44:14;;;;;;;5.87;5.00;;;;;;;;;;5033900;28;20227;-79
2023/09/16 03:46:39;;;;;;;5.80;5.30;;;;;;;;;;5060283;28;20220;-78
2023/09/16 03:49:07;;;;;;;5.18;4.70;;;;;;;;;;5080154;28;20219;-79
2023/09/16 03:51:39;;;;;;;5.80;5.30;;;;;;;;;;5034729;28;20231;-78
2023/09/16 03:54:07;;;;;;;4.97;4.57;;;;;;;;;;5049785;28;20638;-79
2023/09/16 03:56:37;;;;;;;5.70;5.18;;;;;;;;;;5064192;28;20223;-77
2023/09/16 03:59:08;;;;;;;5.40;5.00;;;;;;;;;;5031158;28;20294;-79
2023/09/16 04:05:31;;;;;;;6.43;5.40;;;;;;;;;;5062336;28;20942;-78
2023/09/16 04:07:59;;;;;;;5.87;5.37;;;;;;;;;;5047765;28;20683;-78
2023/09/16 04:10:25;;;;;;;5.80;5.30;;;;;;;;;;5050147;28;20226;-78
2023/09/16 04:12:50;;;;;;;6.13;5.63;;;;;;;;;;5061387;28;20230;-79
2023/09/16 04:15:16;;;;;;;6.50;5.90;;;;;;;;;;5061334;28;20215;-78
2023/09/16 04:17:42;;;;;;;7.17;5.70;;;;;;;;;;5067144;28;20229;-78
2023/09/16 04:20:12;;;;;;;6.03;5.53;;;;;;;;;;5028774;28;20246;-78
2023/09/16 04:22:38;;;;;;;6.13;5.73;;;;;;;;;;5078150;28;20273;-78
2023/09/16 04:25:07;;;;;;;5.80;5.35;;;;;;;;;;5048733;28;20219;-79
2023/09/16 04:27:35;;;;;;;6.33;5.83;;;;;;;;;;5044679;28;20211;-79
2023/09/16 04:30:03;;;;;;;7.27;6.57;;;;;;;;;;5061317;28;20216;-78
2023/09/16 04:32:29;;;;;;;6.50;6.00;;;;;;;;;;5068430;28;20227;-77
2023/09/16 04:34:57;;;;;;;7.80;6.07;;;;;;;;;;5034493;28;20264;-79
2023/09/16 04:37:22;;;;;;;6.57;6.03;;;;;;;;;;5061551;28;20235;-79
2023/09/16 04:39:51;;;;;;;6.50;5.90;;;;;;;;;;5053673;28;20223;-76
2023/09/16 04:42:16;;;;;;;7.07;6.53;;;;;;;;;;5059446;28;20219;-76
2023/09/16 04:44:44;;;;;;;6.50;6.00;;;;;;;;;;5077306;28;20207;-77
2023/09/16 04:47:10;;;;;;;7.57;6.87;;;;;;;;;;5076599;28;20313;-77
2023/09/16 04:49:36;;;;;;;7.33;6.63;;;;;;;;;;5099833;28;20249;-77
2023/09/16 04:52:06;;;;;;;6.93;6.43;;;;;;;;;;5049989;28;20222;-78
2023/09/16 04:54:35;;;;;;;10.20;6.87;;;;;;;;;;5056972;28;20227;-78
2023/09/16 04:57:02;;;;;;;7.97;7.10;;;;;;;;;;5046806;28;20230;-78
2023/09/16 04:59:28;;;;;;;7.30;6.57;;;;;;;;;;5052706;28;20215;-78
2023/09/16 05:01:55;;;;;;;6.67;6.17;;;;;;;;;;5029386;28;20224;-79
2023/09/16 05:04:25;;;;;;;7.10;6.50;;;;;;;;;;5068834;28;20706;-78
2023/09/16 05:06:53;;;;;;;10.20;7.20;;;;;;;;;;5062096;28;20365;-78
2023/09/16 05:09:20;;;;;;;7.00;6.47;;;;;;;;;;5056719;28;20223;-78
2023/09/16 05:11:48;;;;;;;6.53;6.03;;;;;;;;;;5078865;28;20222;-78
2023/09/16 05:14:15;;;;;;;7.83;7.13;;;;;;;;;;5061204;28;20757;-78
2023/09/16 05:16:41;;;;;;;7.10;6.60;;;;;;;;;;5079012;28;20223;-78
2023/09/16 05:19:10;;;;;;;8.03;7.33;;;;;;;;;;5063409;28;20227;-79
2023/09/16 05:21:38;;;;;;;7.43;6.83;;;;;;;;;;5065772;28;20207;-79
2023/09/16 05:24:09;;;;;;;7.47;6.77;;;;;;;;;;5053108;28;20277;-78
2023/09/16 05:26:38;;;;;;;7.83;7.13;;;;;;;;;;5069038;28;20276;-77
2023/09/16 05:29:03;;;;;;;7.07;6.57;;;;;;;;;;5064122;28;20226;-77
2023/09/16 05:31:33;;;;;;;7.70;7.10;;;;;;;;;;5066011;28;20588;-78
2023/09/16 05:34:01;;;;;;;7.80;7.00;;;;;;;;;;5044669;28;20242;-78
2023/09/16 05:36:27;;;;;;;7.67;6.97;;;;;;;;;;5051192;28;20858;-78
2023/09/16 05:38:53;;;;;;;7.70;7.07;;;;;;;;;;5077972;28;20230;-78
2023/09/16 05:41:19;;;;;;;7.60;6.80;;;;;;;;;;5078357;28;22351;-78
2023/09/16 05:43:47;;;;;;;7.60;7.00;;;;;;;;;;5027169;28;20269;-77
2023/09/16 05:46:13;;;;;;;6.88;6.30;;;;;;;;;;5044511;28;20273;-78
2023/09/16 05:48:41;;;;;;;7.93;7.18;;;;;;;;;;5052733;28;20225;-77
2023/09/16 05:51:08;;;;;;;6.60;6.07;;;;;;;;;;5059126;28;20207;-77
2023/09/16 05:53:35;;;;;;;7.33;6.43;;;;;;;;;;5080309;28;20332;-78
2023/09/16 05:56:04;;;;;;;7.45;6.85;;;;;;;;;;5051288;28;20219;-76
2023/09/16 05:58:32;;;;;;;6.63;6.13;;;;;;;;;;5049919;28;20296;-79
2023/09/16 06:01:00;;;;;;;7.68;6.82;;;;;;;;;;5030534;28;20218;-78
2023/09/16 06:03:27;;;;;;;6.97;6.30;;;;;;;;;;5062522;28;20553;-78
2023/09/16 06:05:57;;;;;;;6.90;6.40;;;;;;;;;;5027901;28;20226;-77
2023/09/16 06:08:25;;;;;;;6.75;6.10;;;;;;;;;;5052844;28;20247;-79
2023/09/16 06:10:51;;;;;;;6.45;5.93;;;;;;;;;;5053420;28;20584;-78
2023/09/16 06:13:16;;;;;;;6.38;5.88;;;;;;;;;;5050902;28;20234;-78
2023/09/16 06:15:43;;;;;;;6.28;5.68;;;;;;;;;;5078882;28;20220;-79
2023/09/16 06:18:09;;;;;;;5.80;5.07;;;;;;;;;;5061073;28;20234;-78
2023/09/16 06:20:35;;;;;;;6.78;6.10;;;;;;;;;;5079411;28;20250;-79
2023/09/16 06:23:06;;;;;;;6.18;5.63;;;;;;;;;;5047283;28;20793;-79
2023/09/16 06:25:34;;;;;;;6.68;5.97;;;;;;;;;;5052442;28;20235;-77
2023/09/16 06:28:03;;;;;;;5.82;5.32;;;;;;;;;;5045587;28;20272;-76
2023/09/16 06:30:33;;;;;;;6.43;4.72;;;;;;;;;;5062331;28;20314;-78
2023/09/16 06:32:58;;;;;;;5.85;5.28;;;;;;;;;;5052528;28;20222;-78
2023/09/16 06:35:24;;;;;;;5.72;5.22;;;;;;;;;;5060175;28;20266;-78
2023/09/16 06:37:50;;;;;;;5.75;5.30;;;;;;;;;;5059861;28;20737;-78
2023/09/16 06:40:20;;;;;;;5.47;4.65;;;;;;;;;;5060279;28;20234;-77
2023/09/16 06:42:48;;;;;;;5.55;5.10;;;;;;;;;;5066246;28;20682;-77
2023/09/16 06:45:19;;;;;;;5.75;5.25;;;;;;;;;;5079631;28;20222;-78
2023/09/16 06:47:47;;;;;;;5.70;5.20;;;;;;;;;;5050815;28;20302;-79
2023/09/16 06:50:15;;;;;;;6.63;4.97;;;;;;;;;;5049432;28;20218;-78
2023/09/16 06:52:41;;;;;;;7.80;5.20;;;;;;;;;;5045435;28;20814;-79
2023/09/16 06:55:11;;;;;;;5.32;4.82;;;;;;;;;;5058758;28;20718;-78
2023/09/16 06:57:36;;;;;;;8.30;5.15;;;;;;;;;;5060081;28;20230;-79
2023/09/16 07:00:02;;;;;;;5.22;4.72;;;;;;;;;;5067365;28;20269;-76
2023/09/16 07:02:29;;;;;;;5.50;5.10;;;;;;;;;;5063954;28;20276;-79
2023/09/16 07:05:00;;;;;;;5.00;4.50;;;;;;;;;;5077441;28;20214;-78
2023/09/16 07:07:28;;;;;;;5.65;5.15;;;;;;;;;;5063303;28;20215;-79
2023/09/16 07:09:57;;;;;;;5.10;4.60;;;;;;;;;;5046699;28;20226;-77
2023/09/16 07:12:22;;;;;;;4.78;4.38;;;;;;;;;;5060095;28;20229;-78
2023/09/16 07:14:48;;;;;;;4.75;4.35;;;;;;;;;;5050724;28;20230;-77
2023/09/16 07:17:19;;;;;;;4.95;4.55;;;;;;;;;;5064989;28;20457;-78
2023/09/16 07:19:44;;;;;;;4.70;4.32;;;;;;;;;;5050120;28;20228;-78
2023/09/16 07:22:10;;;;;;;5.35;4.57;;;;;;;;;;5059178;28;20218;-79
2023/09/16 07:24:37;;;;;;;5.15;4.18;;;;;;;;;;5050423;28;20222;-77
2023/09/16 07:27:05;;;;;;;5.45;4.82;;;;;;;;;;5067249;28;20316;-78
2023/09/16 07:29:35;;;;;;;4.85;4.45;;;;;;;;;;5063353;28;20936;-77
2023/09/16 07:32:01;;;;;;;4.80;4.40;;;;;;;;;;5048081;28;20229;-77
2023/09/16 07:34:26;;;;;;;6.15;4.85;;;;;;;;;;5016677;28;20215;-78
2023/09/16 07:36:59;;;;;;;4.50;4.10;;;;;;;;;;5068829;28;20664;-78
2023/09/16 07:39:27;;;;;;;4.93;4.43;;;;;;;;;;5049579;28;20695;-79
2023/09/16 07:41:55;;;;;;;6.90;4.35;;;;;;;;;;5042285;28;20227;-79
2023/09/16 07:44:21;;;;;;;4.63;4.22;;;;;;;;;;5060203;28;20272;-79
2023/09/16 07:46:49;;;;;;;4.70;4.30;;;;;;;;;;5059073;28;20215;-79
2023/09/16 07:49:17;;;;;;;4.70;4.28;;;;;;;;;;5061796;28;20295;-79
2023/09/16 07:51:46;;;;;;;4.10;3.80;;;;;;;;;;5060584;28;20630;-79
2023/09/16 07:54:17;;;;;;;4.45;4.07;;;;;;;;;;5047811;28;20390;-78
2023/09/16 07:56:45;;;;;;;5.47;4.03;;;;;;;;;;5058665;28;20270;-78
2023/09/16 07:59:10;;;;;;;4.30;3.80;;;;;;;;;;5059069;28;20223;-78
2023/09/16 08:01:43;;;;;;;4.40;4.00;;;;;;;;;;5065259;28;20211;-78
2023/09/16 08:04:11;;;;;;;4.43;4.03;;;;;;;;;;5045374;28;20234;-78
2023/09/16 08:06:38;;;;;;;4.60;4.20;;;;;;;;;;5046650;28;20207;-78
2023/09/16 08:09:06;;;;;;;4.25;3.80;;;;;;;;;;5053176;28;20275;-78
2023/09/16 08:11:34;;;;;;;3.92;3.63;;;;;;;;;;5049166;28;20206;-79
2023/09/16 08:14:00;;;;;;;4.57;4.15;;;;;;;;;;5060498;28;20571;-79
2023/09/16 08:16:25;;;;;;;4.38;3.90;;;;;;;;;;5043225;28;20219;-79
2023/09/16 08:18:51;;;;;;;5.30;3.70;;;;;;;;;;5058862;28;20210;-78
2023/09/16 08:21:19;;;;;;;4.45;3.70;;;;;;;;;;5054972;28;20241;-79
2023/09/16 08:23:45;;;;;;;3.90;3.58;;;;;;;;;;5055242;28;20593;-78
2023/09/16 08:26:10;;;;;;;4.90;3.90;;;;;;;;;;5065257;28;20768;-78
2023/09/16 08:28:38;;;;;;;3.67;3.38;;;;;;;;;;5047997;28;20230;-78
2023/09/16 08:31:04;;;;;;;3.80;3.45;;;;;;;;;;5046361;28;20219;-77
2023/09/16 08:33:29;;;;;;;3.92;3.42;;;;;;;;;;5056015;28;20244;-78
2023/09/16 08:35:57;;;;;;;4.93;3.08;;;;;;;;;;5049859;28;20770;-78
2023/09/16 08:38:25;;;;;;;3.80;3.40;;;;;;;;;;5045149;28;20334;-79
2023/09/16 08:40:56;;;;;;;5.40;2.97;;;;;;;;;;5052734;28;20284;-78
2023/09/16 08:43:29;;;;;;;3.35;3.05;;;;;;;;;;5055986;28;20323;-78
2023/09/16 08:46:02;;;;;;;3.20;2.90;;;;;;;;;;5050711;28;20222;-77
2023/09/16 08:48:32;;;;;;;3.90;3.45;;;;;;;;;;5060011;28;20215;-78
2023/09/16 08:51:01;;;;;;;3.45;3.10;;;;;;;;;;5039935;28;20257;-77
2023/09/16 08:53:28;;;;;;;3.53;3.00;;;;;;;;;;5072531;28;20588;-77
2023/09/16 08:55:56;;;;;;;3.53;3.22;;;;;;;;;;5049412;28;20229;-78
2023/09/16 08:58:22;;;;;;;3.00;2.80;;;;;;;;;;5057036;28;20719;-78
2023/09/16 09:00:50;;;;;;;3.80;2.90;;;;;;;;;;5062373;28;20212;-77
2023/09/16 09:03:21;;;;;;;3.30;2.88;;;;;;;;;;5058255;28;20712;-78
2023/09/16 09:05:49;;;;;;;3.50;3.17;;;;;;;;;;5028363;28;20222;-77
2023/09/16 09:08:14;;;;;;;4.63;3.15;;;;;;;;;;5041544;28;20790;-79
2023/09/16 09:10:40;;;;;;;5.10;3.00;;;;;;;;;;5063315;28;20234;-77
2023/09/16 09:13:06;;;;;;;4.53;3.28;;;;;;;;;;5060550;28;20297;-77
2023/09/16 09:15:32;;;;;;;3.20;2.97;;;;;;;;;;5063334;28;20648;-78
2023/09/16 09:17:58;;;;;;;4.75;2.90;;;;;;;;;;5060901;28;20272;-78
2023/09/16 09:20:26;;;;;;;3.05;2.70;;;;;;;;;;5060428;28;20223;-78
2023/09/16 09:22:52;;;;;;;2.97;2.78;;;;;;;;;;5060309;28;20211;-78
2023/09/16 09:25:24;;;;;;;3.15;2.80;;;;;;;;;;5034883;28;20225;-76
2023/09/16 09:27:52;;;;;;;2.78;2.58;;;;;;;;;;5050670;28;20215;-77
2023/09/16 09:30:24;;;;;;;4.80;2.83;;;;;;;;;;5058921;28;21117;-77
2023/09/16 09:32:50;;;;;;;4.43;2.70;;;;;;;;;;5060528;28;20219;-77
2023/09/16 09:35:15;;;;;;;4.57;2.30;;;;;;;;;;5050711;28;20249;-77
2023/09/16 09:37:41;;;;;;;2.55;2.35;;;;;;;;;;5034251;28;20707;-78
2023/09/16 09:40:12;;;;;;;2.28;2.17;;;;;;;;;;5058481;28;20207;-77
2023/09/16 09:42:44;;;;;;;3.67;2.53;;;;;;;;;;5061999;28;20230;-78
2023/09/16 09:45:12;;;;;;;2.60;2.20;;;;;;;;;;5078375;28;20238;-77
2023/09/16 09:47:40;;;;;;;2.50;2.30;;;;;;;;;;5061982;28;20223;-78
2023/09/16 09:50:07;;;;;;;2.35;2.15;;;;;;;;;;5032520;28;20223;-78
2023/09/16 09:52:34;;;;;;;2.53;2.33;;;;;;;;;;5031894;28;20219;-78
2023/09/16 09:55:00;;;;;;;3.00;2.70;;;;;;;;;;5049654;28;20215;-78
2023/09/16 09:57:28;;;;;;;2.40;2.20;;;;;;;;;;5059563;28;20219;-78
2023/09/16 10:00:02;;;;;;;2.15;1.95;;;;;;;;;;5061046;28;20261;-78
2023/09/16 10:02:39;;;;;;;2.50;2.30;;;;;;;;;;5056884;28;20214;-77
2023/09/16 10:05:05;;;;;;;2.25;2.05;;;;;;;;;;5059655;28;20249;-78
2023/09/16 10:07:34;;;;;;;1.92;1.83;;;;;;;;;;5077238;28;20234;-78
2023/09/16 10:09:59;;;;;;;1.88;1.70;;;;;;;;;;5050426;28;20219;-78
2023/09/16 10:12:27;;;;;;;5.00;1.92;;;;;;;;;;5055930;28;20678;-78
2023/09/16 10:14:57;;;;;;;1.85;1.75;;;;;;;;;;5041239;28;20210;-80
2023/09/16 10:17:22;;;;;;;1.92;1.83;;;;;;;;;;5045358;28;20227;-78
2023/09/16 10:19:50;;;;;;;1.90;1.80;;;;;;;;;;5045288;28;20842;-79
2023/09/16 10:22:16;;;;;;;4.22;1.92;;;;;;;;;;5077280;28;20752;-80
2023/09/16 10:24:44;;;;;;;1.98;1.75;;;;;;;;;;5077247;28;20223;-77
2023/09/16 10:27:20;;;;;;;1.55;1.45;;;;;;;;;;5061009;28;20647;-78
2023/09/16 10:29:49;;;;;;;2.65;2.05;;;;;;;;;;5060993;28;20233;-78
2023/09/16 10:32:16;;;;;;;1.92;1.65;;;;;;;;;;5060120;28;20223;-77
2023/09/16 10:34:44;;;;;;;2.72;1.55;;;;;;;;;;5063740;28;20222;-78
2023/09/16 10:37:10;;;;;;;2.75;1.88;;;;;;;;;;5079544;28;20234;-78
2023/09/16 10:39:40;;;;;;;1.98;1.80;;;;;;;;;;5042292;28;20628;-77
2023/09/16 10:42:05;;;;;;;1.90;1.80;;;;;;;;;;5063933;28;20223;-79
2023/09/16 10:44:31;;;;;;;1.75;1.65;;;;;;;;;;5056533;28;20230;-76
2023/09/16 10:46:57;;;;;;;2.33;1.58;;;;;;;;;;5073442;28;20726;-77
2023/09/16 10:49:26;;;;;;;2.47;1.88;;;;;;;;;;5076339;28;20226;-76
2023/09/16 10:51:51;;;;;;;1.83;1.73;;;;;;;;;;5072280;28;20215;-77
2023/09/16 10:54:23;;;;;;;4.15;1.88;;;;;;;;;;5048271;28;20230;-76
2023/09/16 10:56:51;;;;;;;1.90;1.70;;;;;;;;;;5056461;28;20272;-80
2023/09/16 10:59:17;;;;;;;3.38;1.58;;;;;;;;;;5072445;28;20239;-79
2023/09/16 11:01:58;;;;;;;1.63;1.52;;;;;;;;;;5065910;28;20219;-78
2023/09/16 11:04:25;;;;;;;1.50;1.38;;;;;;;;;;5061618;28;20257;-78
2023/09/16 11:06:54;;;;;;;1.80;1.70;;;;;;;;;;5062989;28;20207;-78
2023/09/16 11:09:21;;;;;;;2.55;1.70;;;;;;;;;;5042954;28;20276;-78
2023/09/16 11:11:49;;;;;;;1.50;1.40;;;;;;;;;;5044752;28;20218;-77
2023/09/16 11:14:18;;;;;;;1.83;1.65;;;;;;;;;;5027171;28;20239;-78
2023/09/16 11:16:44;;;;;;;1.55;1.40;;;;;;;;;;5067621;28;20318;-77
2023/09/16 11:19:14;;;;;;;1.80;1.70;;;;;;;;;;5058243;28;20322;-78
2023/09/16 11:21:43;;;;;;;4.28;1.90;;;;;;;;;;5033550;28;20225;-78
2023/09/16 11:24:09;;;;;;;2.88;1.45;;;;;;;;;;5059115;28;20219;-78
2023/09/16 11:26:41;;;;;;;1.80;1.70;;;;;;;;;;5057968;28;20226;-78
2023/09/16 11:29:21;;;;;;;1.90;1.63;;;;;;;;;;5040012;28;20215;-77
2023/09/16 11:31:49;;;;;;;7.22;2.47;;;;;;;;;;5064919;28;20214;-78
2023/09/16 11:34:21;;;;;;;3.15;1.50;;;;;;;;;;5059181;28;20216;-78
2023/09/16 11:36:51;;;;;;;2.55;1.48;;;;;;;;;;5051118;28;20309;-79
2023/09/16 11:39:24;;;;;;;1.95;1.73;;;;;;;;;;5043458;28;20317;-78
2023/09/16 11:41:50;;;;;;;1.52;1.35;;;;;;;;;;5045987;28;20242;-77
2023/09/16 11:44:16;;;;;;;1.55;1.45;;;;;;;;;;5023899;28;20218;-77
2023/09/16 11:46:45;;;;;;;1.75;1.65;;;;;;;;;;5055978;28;20223;-78
2023/09/16 11:49:16;;;;;;;1.80;1.70;;;;;;;;;;5076869;28;20718;-78
2023/09/16 11:51:50;;;;;;;1.83;1.73;;;;;;;;;;5058690;28;20226;-77
2023/09/16 11:54:17;;;;;;;2.90;1.50;;;;;;;;;;5048852;28;20652;-78
2023/09/16 11:56:44;;;;;;;1.65;1.50;;;;;;;;;;5091467;28;20254;-77
2023/09/16 11:59:10;;;;;;;2.92;1.50;;;;;;;;;;5044827;28;20215;-77
2023/09/16 12:01:40;;;;;;;2.30;1.48;;;;;;;;;;5047341;28;20726;-78
2023/09/16 12:04:07;;;;;;;1.85;1.45;;;;;;;;;;5040649;28;20680;-77
2023/09/16 12:06:34;;;;;;;2.63;1.50;;;;;;;;;;5046014;28;20219;-77
2023/09/16 12:09:00;;;;;;;2.88;1.67;;;;;;;;;;5062962;28;20280;-78
2023/09/16 12:11:26;;;;;;;2.65;1.60;;;;;;;;;;5056467;28;20245;-78
2023/09/16 12:13:53;;;;;;;1.75;1.35;;;;;;;;;;5058271;28;21160;-77
2023/09/16 12:16:22;;;;;;;1.60;1.35;;;;;;;;;;5039617;28;20226;-75
2023/09/16 12:18:47;;;;;;;1.95;1.80;;;;;;;;;;5064447;28;20223;-78
2023/09/16 12:21:15;;;;;;;3.28;2.00;;;;;;;;;;5057327;28;20734;-77
2023/09/16 12:23:50;;;;;;;2.35;1.40;;;;;;;;;;5062539;28;20230;-78
2023/09/16 12:26:18;;;;;;;1.42;1.33;;;;;;;;;;5053999;28;20730;-78
2023/09/16 12:28:46;;;;;;;1.75;1.60;;;;;;;;;;5046750;28;20223;-78
2023/09/16 12:31:11;;;;;;;1.80;1.65;;;;;;;;;;5080423;28;21010;-76
2023/09/16 12:33:44;;;;;;;1.92;1.40;;;;;;;;;;5062543;28;20211;-78
2023/09/16 12:36:15;;;;;;;1.40;1.30;;;;;;;;;;5053718;28;21048;-78
2023/09/16 12:38:43;;;;;;;1.45;1.35;;;;;;;;;;5064064;28;20410;-78
2023/09/16 12:41:14;;;;;;;4.40;1.58;;;;;;;;;;5064222;28;20740;-78
2023/09/16 12:43:40;;;;;;;1.60;1.50;;;;;;;;;;5044531;28;20219;-78
2023/09/16 12:46:05;;;;;;;1.65;1.55;;;;;;;;;;5023635;28;20215;-77
2023/09/16 12:48:32;;;;;;;1.63;1.52;;;;;;;;;;5061016;28;20338;-78
2023/09/16 12:50:57;;;;;;;2.78;1.73;;;;;;;;;;5049285;28;20222;-79
2023/09/16 12:53:24;;;;;;;1.88;1.60;;;;;;;;;;5067018;28;20226;-79
2023/09/16 12:55:56;;;;;;;1.52;1.42;;;;;;;;;;5054321;28;20229;-78
2023/09/16 12:58:25;;;;;;;2.55;1.33;;;;;;;;;;5034024;28;20334;-79
2023/09/16 13:00:51;;;;;;;1.65;1.55;;;;;;;;;;5064853;28;20274;-77
2023/09/16 13:03:23;;;;;;;1.88;1.77;;;;;;;;;;5033844;28;20269;-77
2023/09/16 13:05:53;;;;;;;4.45;1.55;;;;;;;;;;5062307;28;20612;-76
2023/09/16 13:08:21;;;;;;;2.45;1.80;;;;;;;;;;5053194;28;20656;-77
2023/09/16 13:10:57;;;;;;;1.52;1.42;;;;;;;;;;5073254;28;20211;-77
2023/09/16 13:13:23;;;;;;;1.73;1.63;;;;;;;;;;5060322;28;20223;-79
2023/09/16 13:15:51;;;;;;;1.70;1.60;;;;;;;;;;5061725;28;20219;-77
2023/09/16 13:18:19;;;;;;;1.52;1.42;;;;;;;;;;5062070;28;20743;-78
2023/09/16 13:20:45;;;;;;;1.52;1.42;;;;;;;;;;5066372;28;20231;-78
2023/09/16 13:23:24;;;;;;;2.63;1.90;;;;;;;;;;5061908;28;20207;-79
2023/09/16 13:25:56;;;;;;;2.03;1.63;;;;;;;;;;5045918;28;20247;-78
2023/09/16 13:28:24;;;;;;;1.70;1.60;;;;;;;;;;5064721;28;20806;-79
2023/09/16 13:30:56;;;;;;;1.80;1.70;;;;;;;;;;5065470;28;20211;-79
2023/09/16 13:34:04;;;;;;;1.85;1.42;;;;;;;;;;5051202;28;20218;-77
2023/09/16 13:36:33;;;;;;;3.75;1.88;;;;;;;;;;5081933;28;20222;-77
2023/09/16 13:39:00;;;;;;;2.50;1.83;;;;;;;;;;5079978;28;20215;-77
2023/09/16 13:41:28;;;;;;;1.65;1.55;;;;;;;;;;5080842;28;20223;-76
2023/09/16 13:43:53;;;;;;;2.22;1.52;;;;;;;;;;5063317;28;20211;-76
2023/09/16 13:46:24;;;;;;;1.42;1.35;;;;;;;;;;5081524;28;20219;-77
2023/09/16 13:48:55;;;;;;;1.60;1.50;;;;;;;;;;5066286;28;20223;-79
2023/09/16 13:51:26;;;;;;;1.90;1.70;;;;;;;;;;5054690;28;20242;-78
2023/09/16 13:54:04;;;;;;;4.38;1.60;;;;;;;;;;5083745;28;20207;-78
2023/09/16 13:57:07;;;;;;;2.58;1.83;;;;;;;;;;5064105;28;20362;-79
2023/09/16 13:59:40;;;;;;;4.07;1.90;;;;;;;;;;5037558;28;20230;-79
2023/09/16 14:02:08;;;;;;;1.52;1.42;;;;;;;;;;5051267;28;20248;-78
2023/09/16 14:05:14;;;;;;;1.60;1.50;;;;;;;;;;5062970;28;20217;-78
2023/09/16 14:07:43;;;;;;;1.92;1.60;;;;;;;;;;5051140;28;20227;-78
2023/09/16 14:10:25;;;;;;;3.38;1.95;;;;;;;;;;5062394;28;20218;-77
2023/09/16 14:15:53;;;;;;;2.00;1.73;;;;;;;;;;5027027;28;20281;-77
2023/09/16 14:18:37;;;;;;;1.77;1.58;;;;;;;;;;5010652;28;20315;-78
2023/09/16 14:22:05;;;;;;;2.50;1.48;;;;;;;;;;5009429;28;20231;-79
2023/09/16 14:24:36;;;;;;;2.05;1.90;;;;;;;;;;4897983;29;20799;-79
2023/09/16 14:27:07;;;;;;;2.92;1.50;;;;;;;;;;4890703;29;20307;-77
2023/09/16 14:29:58;;;;;;;5.07;1.88;;;;;;;;;;4963316;28;20263;-78
2023/09/16 14:33:09;;;;;;;2.67;2.00;;;;;;;;;;4962306;28;20369;-78
2023/09/16 14:35:50;;;;;;;1.70;1.60;;;;;;;;;;4996125;28;20229;-78
2023/09/16 14:38:52;;;;;;;1.65;1.40;;;;;;;;;;4978534;28;20250;-78
2023/09/16 14:41:33;;;;;;;3.70;1.83;;;;;;;;;;5042075;28;20637;-77
2023/09/16 14:44:05;;;;;;;1.95;1.75;;;;;;;;;;5062981;28;20276;-78
2023/09/16 14:46:55;;;;;;;1.77;1.67;;;;;;;;;;5060844;28;20230;-78
2023/09/16 14:49:56;;;;;;;1.80;1.70;;;;;;;;;;5067196;28;20223;-76
2023/09/16 14:53:06;;;;;;;2.50;1.80;;;;;;;;;;5066474;28;20285;-78
2023/09/16 14:56:17;;;;;;;2.17;1.90;;;;;;;;;;5050665;28;20317;-77
2023/09/16 14:58:49;;;;;;;1.60;1.50;;;;;;;;;;5044312;28;20254;-78
2023/09/16 15:01:48;;;;;;;1.70;1.60;;;;;;;;;;5068817;28;20229;-79
2023/09/16 15:04:37;;;;;;;2.17;1.58;;;;;;;;;;5064587;28;20230;-78